createdAt,value
2022-12-04T00:01:08.199Z,31.50
2022-12-04T00:03:35.228Z,33.33
2022-12-04T00:06:07.164Z,32.15
2022-12-04T00:08:34.316Z,31.33
2022-12-04T00:11:01.571Z,31.20
2022-12-04T00:13:28.452Z,31.50
2022-12-04T00:15:55.304Z,31.50
2022-12-04T00:18:22.263Z,31.40
2022-12-04T00:20:49.840Z,32.22
2022-12-04T00:23:16.849Z,35.30
2022-12-04T00:25:48.580Z,28.85
2022-12-04T00:28:17.233Z,32.45
2022-12-04T00:30:47.146Z,35.95
2022-12-04T00:33:14.167Z,33.70
2022-12-04T00:35:41.132Z,32.72
2022-12-04T00:38:08.083Z,35.85
2022-12-04T00:40:34.929Z,33.00
2022-12-04T00:43:01.860Z,33.75
2022-12-04T00:45:28.754Z,31.88
2022-12-04T00:47:55.698Z,35.33
2022-12-04T00:50:22.572Z,30.42
2022-12-04T00:52:49.408Z,36.10
2022-12-04T00:55:16.282Z,28.73
2022-12-04T00:57:43.171Z,33.35
2022-12-04T01:00:10.330Z,35.72
2022-12-04T01:02:37.275Z,29.38
2022-12-04T01:05:04.481Z,29.98
2022-12-04T01:07:31.431Z,34.78
2022-12-04T01:09:58.340Z,33.63
2022-12-04T01:12:25.321Z,30.45
2022-12-04T01:14:52.279Z,30.13
2022-12-04T01:17:19.185Z,29.48
2022-12-04T01:19:46.026Z,29.42
2022-12-04T01:22:12.882Z,30.67
2022-12-04T01:24:40.536Z,27.35
2022-12-04T01:27:07.888Z,31.85
2022-12-04T01:29:34.826Z,32.20
2022-12-04T01:32:01.848Z,28.05
2022-12-04T01:34:28.702Z,32.28
2022-12-04T01:36:55.498Z,34.63
2022-12-04T01:39:22.420Z,29.88
2022-12-04T01:41:49.466Z,31.48
2022-12-04T01:44:23.466Z,31.65
2022-12-04T01:46:58.525Z,32.63
2022-12-04T01:49:47.989Z,36.50
2022-12-04T01:52:26.609Z,30.52
2022-12-04T01:54:59.125Z,32.70
2022-12-04T01:57:29.151Z,30.02
2022-12-04T02:00:00.423Z,32.42
2022-12-04T02:02:34.699Z,28.90
2022-12-04T02:05:12.139Z,32.95
2022-12-04T02:07:41.234Z,33.78
2022-12-04T02:10:09.982Z,33.35
2022-12-04T02:13:10.766Z,31.92
2022-12-04T02:15:58.940Z,31.92
2022-12-04T02:18:41.100Z,29.98
2022-12-04T02:21:19.575Z,33.13
2022-12-04T02:24:22.283Z,32.90
2022-12-04T02:27:18.071Z,33.08
2022-12-04T02:29:44.885Z,32.35
2022-12-04T02:32:24.036Z,33.45
2022-12-04T02:34:59.850Z,31.45
2022-12-04T02:37:37.727Z,32.50
2022-12-04T02:40:35.358Z,34.28
2022-12-04T02:43:12.692Z,33.10
2022-12-04T02:45:45.343Z,33.40
2022-12-04T02:48:16.463Z,36.88
2022-12-04T02:50:44.249Z,30.63
2022-12-04T02:53:16.478Z,30.10
2022-12-04T02:55:53.900Z,34.55
2022-12-04T02:58:47.030Z,34.88
2022-12-04T03:01:21.684Z,35.47
2022-12-04T03:03:52.282Z,29.98
2022-12-04T03:06:21.998Z,35.38
2022-12-04T03:08:54.792Z,32.25
2022-12-04T03:11:21.728Z,35.50
2022-12-04T03:13:54.836Z,32.15
2022-12-04T03:16:34.957Z,30.75
2022-12-04T03:19:07.521Z,36.10
2022-12-04T03:21:40.818Z,34.22
2022-12-04T03:24:10.725Z,32.28
2022-12-04T03:26:46.520Z,31.40
2022-12-04T03:29:28.017Z,33.30
2022-12-04T03:32:16.140Z,34.17
2022-12-04T03:34:58.154Z,32.65
2022-12-04T03:37:30.783Z,35.65
2022-12-04T03:40:04.026Z,33.22
2022-12-04T03:42:42.422Z,35.65
2022-12-04T03:45:40.156Z,30.33
2022-12-04T03:48:22.681Z,38.50
2022-12-04T03:51:01.340Z,33.28
2022-12-04T03:53:41.773Z,34.80
2022-12-04T03:56:16.469Z,37.65
2022-12-04T03:58:48.815Z,31.77
2022-12-04T04:01:20.320Z,32.95
2022-12-04T04:03:50.731Z,37.33
2022-12-04T04:06:37.781Z,30.23
2022-12-04T04:09:14.363Z,37.50
2022-12-04T04:12:06.672Z,34.58
2022-12-04T04:15:03.635Z,32.08
2022-12-04T04:17:53.382Z,31.70
2022-12-04T04:20:53.593Z,33.08
2022-12-04T04:23:40.466Z,34.42
2022-12-04T04:26:08.903Z,33.08
2022-12-04T04:28:41.090Z,34.97
2022-12-04T04:31:26.070Z,35.15
2022-12-04T04:34:07.676Z,29.35
2022-12-04T04:36:59.435Z,33.63
2022-12-04T04:39:40.267Z,31.25
2022-12-04T04:42:17.669Z,35.15
2022-12-04T04:45:05.894Z,32.50
2022-12-04T04:47:58.479Z,34.97
2022-12-04T04:50:25.758Z,29.77
2022-12-04T04:52:58.907Z,34.92
2022-12-04T04:55:26.483Z,32.38
2022-12-04T04:57:53.274Z,30.52
2022-12-04T05:00:23.114Z,31.88
2022-12-04T05:02:50.473Z,36.25
2022-12-04T05:05:18.146Z,32.08
2022-12-04T05:07:45.026Z,31.90
2022-12-04T05:10:12.032Z,35.13
2022-12-04T05:12:38.914Z,31.02
2022-12-04T05:15:06.241Z,31.77
2022-12-04T05:17:35.559Z,28.13
2022-12-04T05:20:04.002Z,34.40
2022-12-04T05:22:33.511Z,29.92
2022-12-04T05:25:01.401Z,31.58
2022-12-04T05:27:30.254Z,30.23
2022-12-04T05:29:58.516Z,31.35
2022-12-04T05:32:27.766Z,33.55
2022-12-04T05:34:55.499Z,32.17
2022-12-04T05:37:22.711Z,30.92
2022-12-04T05:39:49.562Z,32.17
2022-12-04T05:42:16.371Z,30.40
2022-12-04T05:44:43.221Z,31.60
2022-12-04T05:47:10.238Z,32.20
2022-12-04T05:49:37.342Z,33.45
2022-12-04T05:52:05.961Z,31.63
2022-12-04T05:54:33.179Z,30.83
2022-12-04T05:57:00.034Z,33.05
2022-12-04T05:59:27.037Z,31.33
2022-12-04T06:01:53.970Z,29.95
2022-12-04T06:04:20.935Z,36.88
2022-12-04T06:06:47.915Z,30.80
2022-12-04T06:09:14.791Z,31.60
2022-12-04T06:11:42.906Z,35.92
2022-12-04T06:14:13.484Z,33.25
2022-12-04T06:16:43.159Z,35.28
2022-12-04T06:19:17.408Z,34.50
2022-12-04T06:21:46.242Z,33.35
2022-12-04T06:24:15.930Z,32.47
2022-12-04T06:27:04.115Z,30.63
2022-12-04T06:29:29.828Z,38.20
2022-12-04T06:31:56.842Z,31.30
2022-12-04T06:34:23.851Z,31.67
2022-12-04T06:36:50.733Z,36.17
2022-12-04T06:39:19.149Z,37.00
2022-12-04T06:41:47.579Z,34.13
2022-12-04T06:44:15.618Z,35.22
2022-12-04T06:46:46.768Z,31.15
2022-12-04T06:49:14.806Z,35.08
2022-12-04T06:51:41.899Z,35.15
2022-12-04T06:54:10.372Z,34.95
2022-12-04T06:56:37.365Z,36.75
2022-12-04T06:59:05.029Z,33.20
2022-12-04T07:01:34.216Z,33.05
2022-12-04T07:04:03.936Z,34.33
2022-12-04T07:06:36.221Z,36.92
2022-12-04T07:09:16.404Z,35.80
2022-12-04T07:11:44.519Z,35.70
2022-12-04T07:14:13.013Z,32.63
2022-12-04T07:16:42.203Z,35.53
2022-12-04T07:19:14.152Z,35.35
2022-12-04T07:21:42.319Z,32.92
2022-12-04T07:24:13.268Z,34.63
2022-12-04T07:26:40.152Z,34.33
2022-12-04T07:29:07.197Z,33.35
2022-12-04T07:31:34.115Z,33.47
2022-12-04T07:34:00.994Z,35.35
2022-12-04T07:36:27.978Z,37.50
2022-12-04T07:38:56.319Z,33.88
2022-12-04T07:41:23.929Z,33.60
2022-12-04T07:43:50.952Z,36.83
2022-12-04T07:46:23.675Z,31.65
2022-12-04T07:48:50.781Z,32.38
2022-12-04T07:51:22.645Z,35.22
2022-12-04T07:53:51.576Z,32.40
2022-12-04T07:56:19.238Z,35.30
2022-12-04T07:58:48.372Z,36.88
2022-12-04T08:01:23.274Z,32.42
2022-12-04T08:03:52.776Z,35.58
2022-12-04T08:06:22.145Z,34.83
2022-12-04T08:08:49.973Z,31.30
2022-12-04T08:11:20.172Z,33.65
2022-12-04T08:13:47.061Z,34.47
2022-12-04T08:16:14.787Z,36.72
2022-12-04T08:18:46.512Z,33.17
2022-12-04T08:21:16.290Z,38.55
2022-12-04T08:23:44.058Z,34.08
2022-12-04T08:26:12.167Z,33.17
2022-12-04T08:28:39.960Z,36.33
2022-12-04T08:31:10.755Z,36.97
2022-12-04T08:33:37.936Z,35.97
2022-12-04T08:36:09.888Z,38.58
2022-12-04T08:38:37.221Z,34.97
2022-12-04T08:41:06.737Z,40.55
2022-12-04T08:43:33.999Z,36.67
2022-12-04T08:46:03.483Z,37.58
2022-12-04T08:48:31.274Z,38.10
2022-12-04T08:50:58.315Z,35.45
2022-12-04T08:53:25.583Z,39.85
2022-12-04T08:55:53.188Z,40.40
2022-12-04T08:58:20.418Z,47.22
2022-12-04T09:00:47.707Z,51.70
2022-12-04T09:03:16.990Z,41.92
2022-12-04T09:05:46.018Z,45.72
2022-12-04T09:08:17.818Z,37.85
2022-12-04T09:10:45.048Z,41.92
2022-12-04T09:13:11.981Z,40.00
2022-12-04T09:15:40.409Z,37.58
2022-12-04T09:18:08.434Z,38.00
2022-12-04T09:20:35.769Z,39.03
2022-12-04T09:23:05.005Z,35.42
2022-12-04T09:25:36.047Z,35.53
2022-12-04T09:28:03.390Z,36.55
2022-12-04T09:30:30.678Z,36.33
2022-12-04T09:32:57.597Z,38.55
2022-12-04T09:35:24.465Z,35.53
2022-12-04T09:37:51.389Z,31.55
2022-12-04T09:40:37.598Z,32.83
2022-12-04T09:43:30.724Z,34.78
2022-12-04T09:46:08.966Z,31.95
2022-12-04T09:48:39.911Z,27.77
2022-12-04T09:51:16.627Z,33.75
2022-12-04T09:54:08.160Z,30.02
2022-12-04T09:56:35.585Z,32.92
2022-12-04T09:59:17.101Z,29.77
2022-12-04T10:01:52.064Z,33.33
2022-12-04T10:04:19.355Z,33.88
2022-12-04T10:06:57.882Z,32.40
2022-12-04T10:09:31.648Z,33.60
2022-12-04T10:12:25.360Z,34.55
2022-12-04T10:15:07.726Z,37.33
2022-12-04T10:17:53.244Z,28.65
2022-12-04T10:20:44.238Z,35.53
2022-12-04T10:23:42.846Z,31.23
2022-12-04T10:26:15.875Z,32.80
2022-12-04T10:28:53.513Z,28.30
2022-12-04T10:31:23.788Z,32.00
2022-12-04T10:34:20.870Z,30.38
2022-12-04T10:36:53.099Z,32.08
2022-12-04T10:39:37.549Z,29.50
2022-12-04T10:42:22.775Z,31.33
2022-12-04T10:44:49.666Z,28.65
2022-12-04T10:47:16.791Z,26.70
2022-12-04T10:49:43.658Z,30.15
2022-12-04T10:52:13.082Z,34.60
2022-12-04T10:54:45.239Z,25.95
2022-12-04T10:57:13.987Z,29.42
2022-12-04T10:59:50.874Z,26.88
2022-12-04T11:02:28.209Z,28.55
2022-12-04T11:04:57.171Z,27.33
2022-12-04T11:07:29.260Z,26.85
2022-12-04T11:10:37.711Z,25.92
2022-12-04T11:13:17.265Z,31.20
2022-12-04T11:15:50.167Z,27.08
2022-12-04T11:18:23.278Z,26.17
2022-12-04T11:21:01.600Z,30.17
2022-12-04T11:23:33.649Z,28.27
2022-12-04T11:26:05.850Z,26.10
2022-12-04T11:28:43.135Z,26.88
2022-12-04T11:31:16.616Z,25.38
2022-12-04T11:33:47.878Z,22.98
2022-12-04T11:36:28.716Z,24.30
2022-12-04T11:39:04.634Z,20.50
2022-12-04T11:41:33.228Z,24.45
2022-12-04T11:44:00.977Z,20.65
2022-12-04T11:46:31.441Z,22.00
2022-12-04T11:48:58.622Z,23.45
2022-12-04T11:51:50.421Z,25.40
2022-12-04T11:54:33.952Z,21.25
2022-12-04T11:57:19.011Z,22.63
2022-12-04T12:00:09.714Z,22.80
2022-12-04T12:02:54.544Z,21.63
2022-12-04T12:05:33.504Z,18.27
2022-12-04T12:08:23.059Z,21.13
2022-12-04T12:10:58.809Z,34.30
2022-12-04T12:13:47.132Z,23.52
2022-12-04T12:16:45.769Z,25.83
2022-12-04T12:19:31.537Z,37.10
2022-12-04T12:22:16.851Z,26.73
2022-12-04T12:25:09.571Z,24.33
2022-12-04T12:27:36.509Z,21.75
2022-12-04T12:30:15.609Z,22.73
2022-12-04T12:33:00.677Z,28.20
2022-12-04T12:35:33.253Z,22.52
2022-12-04T12:38:05.386Z,25.17
2022-12-04T12:40:32.272Z,23.70
2022-12-04T12:43:22.247Z,20.13
2022-12-04T12:45:52.197Z,18.17
2022-12-04T12:48:40.564Z,18.20
2022-12-04T12:51:31.965Z,18.00
2022-12-04T12:54:22.738Z,23.83
2022-12-04T12:56:56.957Z,18.60
2022-12-04T12:59:27.549Z,20.35
2022-12-04T13:02:08.519Z,18.83
2022-12-04T13:04:40.310Z,18.42
2022-12-04T13:07:20.706Z,17.98
2022-12-04T13:10:02.875Z,18.92
2022-12-04T13:12:34.612Z,17.67
2022-12-04T13:15:01.561Z,19.65
2022-12-04T13:17:35.136Z,16.70
2022-12-04T13:20:10.220Z,20.33
2022-12-04T13:23:12.602Z,20.25
2022-12-04T13:25:51.193Z,17.70
2022-12-04T13:28:42.534Z,20.65
2022-12-04T13:31:20.392Z,16.55
2022-12-04T13:33:53.237Z,19.13
2022-12-04T13:36:28.863Z,17.75
2022-12-04T13:39:07.434Z,18.70
2022-12-04T13:41:37.797Z,18.92
2022-12-04T13:44:14.741Z,19.25
2022-12-04T13:47:17.278Z,23.90
2022-12-04T13:49:46.122Z,18.13
2022-12-04T13:52:41.547Z,16.80
2022-12-04T13:55:25.406Z,16.67
2022-12-04T13:58:11.940Z,17.00
2022-12-04T14:00:43.710Z,15.98
2022-12-04T14:03:29.826Z,18.50
2022-12-04T14:05:57.004Z,16.85
2022-12-04T14:08:28.432Z,16.95
2022-12-04T14:11:03.140Z,15.35
2022-12-04T14:13:54.668Z,16.13
2022-12-04T14:16:26.784Z,17.88
2022-12-04T14:18:59.572Z,19.58
2022-12-04T14:21:37.786Z,15.20
2022-12-04T14:24:30.725Z,20.80
2022-12-04T14:27:12.283Z,24.30
2022-12-04T14:29:52.765Z,19.20
2022-12-04T14:32:25.451Z,25.67
2022-12-04T14:34:53.490Z,19.63
2022-12-04T14:37:37.554Z,23.13
2022-12-04T14:40:07.568Z,23.92
2022-12-04T14:42:38.363Z,17.98
2022-12-04T14:45:18.753Z,20.17
2022-12-04T14:48:04.071Z,18.80
2022-12-04T14:51:03.145Z,17.80
2022-12-04T14:53:57.277Z,17.67
2022-12-04T14:56:45.598Z,19.17
2022-12-04T14:59:21.926Z,18.58
2022-12-04T15:01:50.779Z,20.20
2022-12-04T15:04:32.863Z,20.17
2022-12-04T15:07:00.861Z,17.17
2022-12-04T15:09:47.478Z,16.73
2022-12-04T15:12:35.380Z,20.52
2022-12-04T15:15:25.058Z,16.88
2022-12-04T15:17:57.804Z,14.55
2022-12-04T15:20:25.376Z,15.77
2022-12-04T15:22:57.388Z,15.70
2022-12-04T15:25:28.051Z,14.15
2022-12-04T15:28:05.880Z,17.33
2022-12-04T15:30:34.932Z,15.07
2022-12-04T15:33:02.098Z,16.90
2022-12-04T15:35:32.845Z,16.77
2022-12-04T15:38:00.530Z,15.77
2022-12-04T15:40:29.484Z,15.55
2022-12-04T15:43:13.792Z,13.82
2022-12-04T15:45:41.551Z,13.57
2022-12-04T15:48:08.490Z,14.25
2022-12-04T15:50:35.747Z,16.75
2022-12-04T15:53:05.462Z,15.90
2022-12-04T15:55:53.695Z,15.38
2022-12-04T15:58:22.858Z,18.33
2022-12-04T16:01:02.602Z,38.25
2022-12-04T16:03:41.603Z,36.80
2022-12-04T16:06:18.208Z,28.70
2022-12-04T16:08:47.780Z,26.63
2022-12-04T16:11:20.537Z,22.08
2022-12-04T16:13:50.228Z,23.83
2022-12-04T16:16:20.577Z,27.92
2022-12-04T16:18:47.668Z,23.77
2022-12-04T16:21:17.793Z,20.30
2022-12-04T16:23:45.231Z,23.17
2022-12-04T16:26:14.740Z,20.10
2022-12-04T16:28:41.971Z,25.50
2022-12-04T16:31:13.179Z,24.60
2022-12-04T16:33:40.695Z,22.45
2022-12-04T16:36:10.210Z,24.75
2022-12-04T16:38:37.344Z,24.75
2022-12-04T16:41:12.952Z,20.33
2022-12-04T16:43:39.921Z,23.70
2022-12-04T16:46:11.860Z,20.55
2022-12-04T16:48:38.852Z,19.27
2022-12-04T16:51:05.815Z,22.23
2022-12-04T16:53:32.711Z,21.23
2022-12-04T16:55:59.601Z,19.58
2022-12-04T16:58:26.487Z,21.20
2022-12-04T17:00:56.289Z,19.92
2022-12-04T17:03:31.341Z,19.10
2022-12-04T17:06:00.357Z,25.13
2022-12-04T17:08:28.196Z,20.73
2022-12-04T17:10:55.076Z,24.83
2022-12-04T17:13:22.803Z,28.08
2022-12-04T17:15:49.829Z,25.00
2022-12-04T17:18:21.075Z,23.95
2022-12-04T17:20:48.598Z,19.00
2022-12-04T17:23:15.967Z,19.30
2022-12-04T17:25:42.810Z,18.70
2022-12-04T17:28:09.748Z,18.98
2022-12-04T17:30:38.931Z,20.40
2022-12-04T17:33:05.835Z,19.30
2022-12-04T17:35:32.703Z,22.88
2022-12-04T17:38:05.696Z,19.35
2022-12-04T17:40:34.056Z,21.63
2022-12-04T17:43:00.945Z,16.27
2022-12-04T17:45:28.720Z,17.92
2022-12-04T17:47:55.775Z,19.70
2022-12-04T17:50:22.848Z,21.10
2022-12-04T17:52:49.880Z,23.00
2022-12-04T17:55:16.789Z,20.70
2022-12-04T17:57:43.690Z,18.73
2022-12-04T18:00:11.150Z,19.55
2022-12-04T18:02:42.099Z,21.67
2022-12-04T18:05:09.826Z,19.85
2022-12-04T18:07:36.867Z,17.75
2022-12-04T18:10:04.140Z,18.23
2022-12-04T18:12:31.068Z,26.90
2022-12-04T18:14:58.298Z,21.83
2022-12-04T18:17:25.557Z,22.92
2022-12-04T18:19:52.512Z,20.52
2022-12-04T18:22:19.354Z,20.88
2022-12-04T18:24:46.281Z,27.55
2022-12-04T18:27:13.126Z,20.55
2022-12-04T18:29:41.551Z,31.77
2022-12-04T18:32:08.564Z,24.30
2022-12-04T18:34:35.506Z,25.27
2022-12-04T18:37:02.564Z,23.08
2022-12-04T18:39:29.478Z,23.58
2022-12-04T18:41:57.059Z,24.55
2022-12-04T18:44:24.238Z,20.05
2022-12-04T18:46:51.133Z,19.92
2022-12-04T18:49:17.961Z,22.33
2022-12-04T18:51:49.696Z,18.90
2022-12-04T18:54:23.193Z,23.75
2022-12-04T18:56:51.619Z,21.20
2022-12-04T18:59:21.965Z,20.02
2022-12-04T19:01:52.315Z,26.80
2022-12-04T19:04:21.059Z,22.55
2022-12-04T19:06:54.953Z,22.27
2022-12-04T19:10:02.058Z,19.30
2022-12-04T19:12:16.395Z,24.80
2022-12-04T19:14:43.212Z,19.73
2022-12-04T19:17:11.360Z,22.70
2022-12-04T19:19:38.241Z,23.25
2022-12-04T19:22:05.259Z,26.05
2022-12-04T19:24:32.340Z,19.85
2022-12-04T19:26:59.198Z,22.40
2022-12-04T19:29:26.224Z,24.08
2022-12-04T19:31:58.826Z,20.45
2022-12-04T19:34:26.773Z,21.48
2022-12-04T19:36:54.671Z,22.70
2022-12-04T19:39:21.529Z,23.40
2022-12-04T19:41:48.413Z,23.90
2022-12-04T19:44:47.438Z,23.00
2022-12-04T19:47:03.111Z,22.20
2022-12-04T19:49:30.058Z,27.02
2022-12-04T19:51:56.995Z,24.10
2022-12-04T19:54:24.637Z,23.20
2022-12-04T19:56:52.646Z,24.17
2022-12-04T19:59:20.541Z,23.63
2022-12-04T20:01:48.213Z,27.58
2022-12-04T20:04:15.869Z,25.33
2022-12-04T20:06:44.995Z,22.67
2022-12-04T20:09:16.257Z,29.48
2022-12-04T20:11:43.179Z,31.70
2022-12-04T20:14:10.370Z,28.00
2022-12-04T20:16:38.383Z,27.77
2022-12-04T20:19:07.427Z,28.50
2022-12-04T20:21:34.814Z,25.02
2022-12-04T20:24:04.594Z,30.15
2022-12-04T20:26:34.718Z,25.85
2022-12-04T20:29:02.106Z,31.88
2022-12-04T20:31:32.785Z,27.83
2022-12-04T20:34:01.879Z,26.38
2022-12-04T20:36:30.468Z,27.17
2022-12-04T20:38:59.041Z,27.58
2022-12-04T20:41:28.471Z,26.65
2022-12-04T20:43:56.316Z,32.42
2022-12-04T20:46:25.617Z,41.40
2022-12-04T20:48:53.652Z,31.70
2022-12-04T20:51:32.990Z,35.53
2022-12-04T20:54:01.430Z,37.20
2022-12-04T20:56:31.016Z,32.65
2022-12-04T20:59:00.007Z,29.33
2022-12-04T21:01:30.342Z,37.05
2022-12-04T21:03:59.244Z,33.95
2022-12-04T21:06:34.553Z,33.33
2022-12-04T21:09:07.255Z,32.85
2022-12-04T21:11:42.742Z,27.20
2022-12-04T21:14:36.711Z,26.73
2022-12-04T21:17:06.063Z,30.20
2022-12-04T21:19:33.122Z,29.90
2022-12-04T21:21:59.979Z,28.38
2022-12-04T21:24:26.892Z,27.92
2022-12-04T21:26:55.053Z,26.73
2022-12-04T21:29:22.302Z,27.67
2022-12-04T21:31:49.479Z,30.02
2022-12-04T21:34:17.513Z,26.17
2022-12-04T21:36:46.265Z,25.77
2022-12-04T21:39:14.389Z,24.33
2022-12-04T21:42:00.156Z,24.55
2022-12-04T21:44:27.566Z,23.95
2022-12-04T21:46:55.072Z,24.25
2022-12-04T21:49:22.764Z,24.90
2022-12-04T21:51:58.526Z,25.35
2022-12-04T21:54:27.975Z,23.80
2022-12-04T21:56:56.133Z,31.00
2022-12-04T21:59:24.395Z,24.85
2022-12-04T22:01:51.504Z,24.80
2022-12-04T22:04:18.505Z,38.88
2022-12-04T22:06:45.356Z,30.42
2022-12-04T22:09:13.061Z,33.55
2022-12-04T22:11:43.991Z,28.33
2022-12-04T22:14:11.933Z,27.23
2022-12-04T22:16:42.684Z,31.23
2022-12-04T22:19:12.035Z,32.55
2022-12-04T22:21:39.961Z,30.02
2022-12-04T22:24:07.413Z,28.90
2022-12-04T22:26:34.352Z,29.30
2022-12-04T22:29:03.164Z,28.10
2022-12-04T22:31:32.150Z,28.73
2022-12-04T22:34:01.468Z,30.02
2022-12-04T22:36:31.129Z,31.30
2022-12-04T22:39:09.446Z,28.67
2022-12-04T22:41:37.138Z,27.42
2022-12-04T22:44:04.337Z,33.42
2022-12-04T22:46:31.624Z,28.50
2022-12-04T22:48:59.443Z,31.45
2022-12-04T22:51:27.261Z,27.50
2022-12-04T22:53:56.906Z,27.50
2022-12-04T22:56:29.086Z,26.67
2022-12-04T22:58:57.976Z,29.40
2022-12-04T23:01:33.385Z,33.78
2022-12-04T23:04:01.441Z,27.95
2022-12-04T23:06:31.702Z,31.80
2022-12-04T23:09:07.993Z,27.40
2022-12-04T23:11:35.431Z,30.38
2022-12-04T23:14:04.849Z,26.17
2022-12-04T23:16:34.374Z,29.35
2022-12-04T23:19:01.343Z,33.08
2022-12-04T23:21:29.009Z,28.35
2022-12-04T23:23:57.002Z,26.30
2022-12-04T23:26:30.447Z,32.38
2022-12-04T23:28:57.840Z,26.63
2022-12-04T23:31:25.241Z,27.98
2022-12-04T23:33:52.119Z,28.20
2022-12-04T23:36:19.215Z,28.52
2022-12-04T23:38:46.809Z,29.27
2022-12-04T23:41:16.221Z,28.13
2022-12-04T23:43:44.006Z,31.20
2022-12-04T23:46:12.550Z,27.60
2022-12-04T23:48:41.027Z,27.05
2022-12-04T23:51:09.353Z,31.63
2022-12-04T23:53:36.792Z,28.15
2022-12-04T23:56:17.898Z,27.50
2022-12-04T23:58:46.038Z,27.00
